sensor_id;sensor_type;location;lat;lon;timestamp;P1;durP1;ratioP1;P2;durP2;ratioP2
12635;SDS011;6383;50.830;7.210;2023-04-29T00:00:30;8.98;;;8.20;;
12635;SDS011;6383;50.830;7.210;2023-04-29T00:02:58;9.13;;;8.43;;
12635;SDS011;6383;50.830;7.210;2023-04-29T00:05:27;9.45;;;8.55;;
12635;SDS011;6383;50.830;7.210;2023-04-29T00:07:56;8.95;;;8.15;;
12635;SDS011;6383;50.830;7.210;2023-04-29T00:10:25;9.82;;;8.82;;
12635;SDS011;6383;50.830;7.210;2023-04-29T00:12:54;10.10;;;9.07;;
12635;SDS011;6383;50.830;7.210;2023-04-29T00:15:22;9.60;;;8.70;;
12635;SDS011;6383;50.830;7.210;2023-04-29T00:17:51;10.82;;;9.77;;
12635;SDS011;6383;50.830;7.210;2023-04-29T00:20:20;9.93;;;8.97;;
12635;SDS011;6383;50.830;7.210;2023-04-29T00:22:50;10.20;;;9.32;;
12635;SDS011;6383;50.830;7.210;2023-04-29T00:25:19;10.93;;;9.93;;
12635;SDS011;6383;50.830;7.210;2023-04-29T00:27:46;10.75;;;9.77;;
12635;SDS011;6383;50.830;7.210;2023-04-29T00:30:14;9.85;;;9.05;;
12635;SDS011;6383;50.830;7.210;2023-04-29T00:32:44;10.07;;;9.18;;
12635;SDS011;6383;50.830;7.210;2023-04-29T00:35:13;10.38;;;9.45;;
12635;SDS011;6383;50.830;7.210;2023-04-29T00:37:42;10.63;;;9.52;;
12635;SDS011;6383;50.830;7.210;2023-04-29T00:40:11;10.60;;;9.63;;
12635;SDS011;6383;50.830;7.210;2023-04-29T00:42:41;11.30;;;10.10;;
12635;SDS011;6383;50.830;7.210;2023-04-29T00:45:10;11.30;;;10.30;;
12635;SDS011;6383;50.830;7.210;2023-04-29T00:47:40;11.23;;;10.13;;
12635;SDS011;6383;50.830;7.210;2023-04-29T00:50:10;12.00;;;10.80;;
12635;SDS011;6383;50.830;7.210;2023-04-29T00:52:38;11.52;;;10.32;;
12635;SDS011;6383;50.830;7.210;2023-04-29T00:55:07;11.75;;;10.60;;
12635;SDS011;6383;50.830;7.210;2023-04-29T00:57:36;12.33;;;11.03;;
12635;SDS011;6383;50.830;7.210;2023-04-29T01:00:06;12.68;;;11.40;;
12635;SDS011;6383;50.830;7.210;2023-04-29T01:02:37;12.05;;;10.75;;
12635;SDS011;6383;50.830;7.210;2023-04-29T01:05:06;12.45;;;10.90;;
12635;SDS011;6383;50.830;7.210;2023-04-29T01:07:41;13.00;;;11.30;;
12635;SDS011;6383;50.830;7.210;2023-04-29T01:10:13;11.98;;;10.77;;
12635;SDS011;6383;50.830;7.210;2023-04-29T01:12:44;11.15;;;10.05;;
12635;SDS011;6383;50.830;7.210;2023-04-29T01:15:18;12.95;;;11.52;;
12635;SDS011;6383;50.830;7.210;2023-04-29T01:17:49;12.52;;;11.23;;
12635;SDS011;6383;50.830;7.210;2023-04-29T01:20:22;13.25;;;11.90;;
12635;SDS011;6383;50.830;7.210;2023-04-29T01:22:54;14.00;;;12.50;;
12635;SDS011;6383;50.830;7.210;2023-04-29T01:25:24;13.82;;;12.10;;
12635;SDS011;6383;50.830;7.210;2023-04-29T01:27:55;14.05;;;12.50;;
12635;SDS011;6383;50.830;7.210;2023-04-29T01:30:31;13.48;;;12.10;;
12635;SDS011;6383;50.830;7.210;2023-04-29T01:33:11;13.50;;;11.85;;
12635;SDS011;6383;50.830;7.210;2023-04-29T01:35:46;13.68;;;12.27;;
12635;SDS011;6383;50.830;7.210;2023-04-29T01:38:29;14.20;;;12.57;;
12635;SDS011;6383;50.830;7.210;2023-04-29T01:41:08;13.80;;;12.35;;
12635;SDS011;6383;50.830;7.210;2023-04-29T01:43:38;13.97;;;12.57;;
12635;SDS011;6383;50.830;7.210;2023-04-29T01:46:09;14.13;;;12.73;;
12635;SDS011;6383;50.830;7.210;2023-04-29T01:48:38;14.73;;;12.13;;
12635;SDS011;6383;50.830;7.210;2023-04-29T01:51:07;13.13;;;11.82;;
12635;SDS011;6383;50.830;7.210;2023-04-29T01:53:36;13.35;;;11.95;;
12635;SDS011;6383;50.830;7.210;2023-04-29T01:56:08;14.10;;;12.73;;
12635;SDS011;6383;50.830;7.210;2023-04-29T01:58:36;14.57;;;13.07;;
12635;SDS011;6383;50.830;7.210;2023-04-29T02:01:04;15.63;;;14.15;;
12635;SDS011;6383;50.830;7.210;2023-04-29T02:03:33;15.50;;;13.85;;
12635;SDS011;6383;50.830;7.210;2023-04-29T02:06:03;17.15;;;15.38;;
12635;SDS011;6383;50.830;7.210;2023-04-29T02:08:32;17.58;;;15.68;;
12635;SDS011;6383;50.830;7.210;2023-04-29T02:11:00;17.48;;;15.30;;
12635;SDS011;6383;50.830;7.210;2023-04-29T02:13:30;17.48;;;15.60;;
12635;SDS011;6383;50.830;7.210;2023-04-29T02:16:05;17.33;;;15.50;;
12635;SDS011;6383;50.830;7.210;2023-04-29T02:18:35;17.63;;;15.60;;
12635;SDS011;6383;50.830;7.210;2023-04-29T02:21:03;17.25;;;15.60;;
12635;SDS011;6383;50.830;7.210;2023-04-29T02:23:31;18.08;;;16.17;;
12635;SDS011;6383;50.830;7.210;2023-04-29T02:25:59;19.80;;;16.40;;
12635;SDS011;6383;50.830;7.210;2023-04-29T02:28:30;21.40;;;17.77;;
12635;SDS011;6383;50.830;7.210;2023-04-29T02:30:59;20.42;;;18.33;;
12635;SDS011;6383;50.830;7.210;2023-04-29T02:33:28;22.23;;;19.90;;
12635;SDS011;6383;50.830;7.210;2023-04-29T02:35:57;21.45;;;19.10;;
12635;SDS011;6383;50.830;7.210;2023-04-29T02:38:26;23.88;;;21.38;;
12635;SDS011;6383;50.830;7.210;2023-04-29T02:40:54;24.50;;;21.30;;
12635;SDS011;6383;50.830;7.210;2023-04-29T02:43:23;24.05;;;21.58;;
12635;SDS011;6383;50.830;7.210;2023-04-29T02:45:53;22.73;;;20.23;;
12635;SDS011;6383;50.830;7.210;2023-04-29T02:48:21;25.52;;;22.33;;
12635;SDS011;6383;50.830;7.210;2023-04-29T02:50:48;26.08;;;22.30;;
12635;SDS011;6383;50.830;7.210;2023-04-29T02:53:16;24.80;;;22.10;;
12635;SDS011;6383;50.830;7.210;2023-04-29T02:55:44;27.17;;;23.40;;
12635;SDS011;6383;50.830;7.210;2023-04-29T02:58:16;27.97;;;23.60;;
12635;SDS011;6383;50.830;7.210;2023-04-29T03:00:45;28.15;;;23.58;;
12635;SDS011;6383;50.830;7.210;2023-04-29T03:03:14;28.30;;;25.25;;
12635;SDS011;6383;50.830;7.210;2023-04-29T03:05:43;29.55;;;26.48;;
12635;SDS011;6383;50.830;7.210;2023-04-29T03:08:11;30.60;;;27.27;;
12635;SDS011;6383;50.830;7.210;2023-04-29T03:10:39;34.83;;;31.02;;
12635;SDS011;6383;50.830;7.210;2023-04-29T03:13:07;38.38;;;31.23;;
12635;SDS011;6383;50.830;7.210;2023-04-29T03:15:36;36.50;;;31.88;;
12635;SDS011;6383;50.830;7.210;2023-04-29T03:18:05;33.50;;;29.83;;
12635;SDS011;6383;50.830;7.210;2023-04-29T03:20:35;34.20;;;30.52;;
12635;SDS011;6383;50.830;7.210;2023-04-29T03:23:04;36.47;;;30.00;;
12635;SDS011;6383;50.830;7.210;2023-04-29T03:25:31;34.92;;;29.33;;
12635;SDS011;6383;50.830;7.210;2023-04-29T03:27:59;37.03;;;30.38;;
12635;SDS011;6383;50.830;7.210;2023-04-29T03:30:27;44.78;;;31.52;;
12635;SDS011;6383;50.830;7.210;2023-04-29T03:32:56;35.05;;;30.45;;
12635;SDS011;6383;50.830;7.210;2023-04-29T03:35:23;33.35;;;28.65;;
12635;SDS011;6383;50.830;7.210;2023-04-29T03:37:52;32.75;;;28.83;;
12635;SDS011;6383;50.830;7.210;2023-04-29T03:40:21;34.50;;;29.50;;
12635;SDS011;6383;50.830;7.210;2023-04-29T03:42:50;34.40;;;30.38;;
12635;SDS011;6383;50.830;7.210;2023-04-29T03:45:18;37.45;;;30.83;;
12635;SDS011;6383;50.830;7.210;2023-04-29T03:47:47;38.55;;;32.13;;
12635;SDS011;6383;50.830;7.210;2023-04-29T03:50:16;40.67;;;33.13;;
12635;SDS011;6383;50.830;7.210;2023-04-29T03:52:44;38.63;;;33.20;;
12635;SDS011;6383;50.830;7.210;2023-04-29T03:55:14;44.83;;;36.10;;
12635;SDS011;6383;50.830;7.210;2023-04-29T03:57:43;40.28;;;34.63;;
12635;SDS011;6383;50.830;7.210;2023-04-29T04:00:12;42.95;;;37.38;;
12635;SDS011;6383;50.830;7.210;2023-04-29T04:02:41;44.50;;;37.65;;
12635;SDS011;6383;50.830;7.210;2023-04-29T04:05:09;48.47;;;38.40;;
12635;SDS011;6383;50.830;7.210;2023-04-29T04:07:37;48.25;;;40.22;;
12635;SDS011;6383;50.830;7.210;2023-04-29T04:10:06;49.38;;;39.80;;
12635;SDS011;6383;50.830;7.210;2023-04-29T04:12:37;50.67;;;40.35;;
12635;SDS011;6383;50.830;7.210;2023-04-29T04:15:06;48.22;;;39.35;;
12635;SDS011;6383;50.830;7.210;2023-04-29T04:17:36;47.38;;;39.10;;
12635;SDS011;6383;50.830;7.210;2023-04-29T04:20:04;51.67;;;41.38;;
12635;SDS011;6383;50.830;7.210;2023-04-29T04:22:34;52.75;;;42.50;;
12635;SDS011;6383;50.830;7.210;2023-04-29T04:25:01;57.03;;;43.17;;
12635;SDS011;6383;50.830;7.210;2023-04-29T04:27:29;60.25;;;44.97;;
12635;SDS011;6383;50.830;7.210;2023-04-29T04:29:59;55.95;;;42.50;;
12635;SDS011;6383;50.830;7.210;2023-04-29T04:32:28;61.30;;;43.67;;
12635;SDS011;6383;50.830;7.210;2023-04-29T04:34:58;61.40;;;41.95;;
12635;SDS011;6383;50.830;7.210;2023-04-29T04:37:27;59.47;;;41.47;;
12635;SDS011;6383;50.830;7.210;2023-04-29T04:39:56;64.18;;;42.88;;
12635;SDS011;6383;50.830;7.210;2023-04-29T04:42:25;72.55;;;45.42;;
12635;SDS011;6383;50.830;7.210;2023-04-29T04:44:52;71.17;;;46.13;;
12635;SDS011;6383;50.830;7.210;2023-04-29T04:47:23;69.60;;;45.22;;
12635;SDS011;6383;50.830;7.210;2023-04-29T04:49:52;70.72;;;45.60;;
12635;SDS011;6383;50.830;7.210;2023-04-29T04:52:20;65.57;;;44.92;;
12635;SDS011;6383;50.830;7.210;2023-04-29T04:54:47;66.57;;;45.90;;
12635;SDS011;6383;50.830;7.210;2023-04-29T04:57:17;73.65;;;46.38;;
12635;SDS011;6383;50.830;7.210;2023-04-29T04:59:46;68.18;;;45.22;;
12635;SDS011;6383;50.830;7.210;2023-04-29T05:02:15;67.72;;;45.90;;
12635;SDS011;6383;50.830;7.210;2023-04-29T05:04:45;68.05;;;47.33;;
12635;SDS011;6383;50.830;7.210;2023-04-29T05:07:14;68.25;;;45.80;;
12635;SDS011;6383;50.830;7.210;2023-04-29T05:09:43;65.17;;;42.50;;
12635;SDS011;6383;50.830;7.210;2023-04-29T05:12:12;63.67;;;44.40;;
12635;SDS011;6383;50.830;7.210;2023-04-29T05:14:41;58.30;;;41.30;;
12635;SDS011;6383;50.830;7.210;2023-04-29T05:17:10;63.13;;;42.27;;
12635;SDS011;6383;50.830;7.210;2023-04-29T05:19:38;61.03;;;41.80;;
12635;SDS011;6383;50.830;7.210;2023-04-29T05:22:09;62.03;;;43.65;;
12635;SDS011;6383;50.830;7.210;2023-04-29T05:24:37;61.93;;;43.17;;
12635;SDS011;6383;50.830;7.210;2023-04-29T05:27:05;63.25;;;44.38;;
12635;SDS011;6383;50.830;7.210;2023-04-29T05:29:34;58.33;;;42.00;;
12635;SDS011;6383;50.830;7.210;2023-04-29T05:32:03;57.53;;;42.20;;
12635;SDS011;6383;50.830;7.210;2023-04-29T05:34:32;58.92;;;42.28;;
12635;SDS011;6383;50.830;7.210;2023-04-29T05:37:01;56.20;;;41.60;;
12635;SDS011;6383;50.830;7.210;2023-04-29T05:39:29;55.58;;;41.30;;
12635;SDS011;6383;50.830;7.210;2023-04-29T05:41:58;55.83;;;41.03;;
12635;SDS011;6383;50.830;7.210;2023-04-29T05:44:28;55.08;;;40.35;;
12635;SDS011;6383;50.830;7.210;2023-04-29T05:46:57;56.42;;;40.80;;
12635;SDS011;6383;50.830;7.210;2023-04-29T05:49:24;54.83;;;41.47;;
12635;SDS011;6383;50.830;7.210;2023-04-29T05:51:53;55.17;;;40.00;;
12635;SDS011;6383;50.830;7.210;2023-04-29T05:54:21;53.53;;;39.17;;
12635;SDS011;6383;50.830;7.210;2023-04-29T05:56:51;53.70;;;38.65;;
12635;SDS011;6383;50.830;7.210;2023-04-29T05:59:20;49.67;;;36.90;;
12635;SDS011;6383;50.830;7.210;2023-04-29T06:01:49;48.25;;;36.60;;
12635;SDS011;6383;50.830;7.210;2023-04-29T06:04:16;47.17;;;36.38;;
12635;SDS011;6383;50.830;7.210;2023-04-29T06:06:44;49.83;;;36.33;;
12635;SDS011;6383;50.830;7.210;2023-04-29T06:09:14;49.58;;;37.05;;
12635;SDS011;6383;50.830;7.210;2023-04-29T06:11:43;45.97;;;35.00;;
12635;SDS011;6383;50.830;7.210;2023-04-29T06:14:13;48.95;;;35.97;;
12635;SDS011;6383;50.830;7.210;2023-04-29T06:16:42;45.45;;;34.30;;
12635;SDS011;6383;50.830;7.210;2023-04-29T06:19:11;43.17;;;33.63;;
12635;SDS011;6383;50.830;7.210;2023-04-29T06:21:39;45.33;;;34.63;;
12635;SDS011;6383;50.830;7.210;2023-04-29T06:24:07;41.08;;;33.10;;
12635;SDS011;6383;50.830;7.210;2023-04-29T06:26:36;39.23;;;32.03;;
12635;SDS011;6383;50.830;7.210;2023-04-29T06:29:04;39.35;;;30.83;;
12635;SDS011;6383;50.830;7.210;2023-04-29T06:31:33;38.33;;;30.70;;
12635;SDS011;6383;50.830;7.210;2023-04-29T06:34:02;35.17;;;28.80;;
12635;SDS011;6383;50.830;7.210;2023-04-29T06:36:31;33.00;;;28.83;;
12635;SDS011;6383;50.830;7.210;2023-04-29T06:39:00;33.15;;;27.98;;
12635;SDS011;6383;50.830;7.210;2023-04-29T06:41:29;31.30;;;26.30;;
12635;SDS011;6383;50.830;7.210;2023-04-29T06:43:58;33.22;;;26.33;;
12635;SDS011;6383;50.830;7.210;2023-04-29T06:46:25;29.05;;;24.98;;
12635;SDS011;6383;50.830;7.210;2023-04-29T06:48:56;28.83;;;23.40;;
12635;SDS011;6383;50.830;7.210;2023-04-29T06:51:24;28.60;;;23.35;;
12635;SDS011;6383;50.830;7.210;2023-04-29T06:53:54;27.00;;;23.73;;
12635;SDS011;6383;50.830;7.210;2023-04-29T06:56:22;27.55;;;23.83;;
12635;SDS011;6383;50.830;7.210;2023-04-29T06:58:52;28.33;;;24.05;;
12635;SDS011;6383;50.830;7.210;2023-04-29T07:01:21;28.33;;;23.77;;
12635;SDS011;6383;50.830;7.210;2023-04-29T07:03:50;29.60;;;23.63;;
12635;SDS011;6383;50.830;7.210;2023-04-29T07:06:19;27.38;;;22.95;;
12635;SDS011;6383;50.830;7.210;2023-04-29T07:08:47;26.97;;;22.30;;
12635;SDS011;6383;50.830;7.210;2023-04-29T07:11:16;27.95;;;23.05;;
12635;SDS011;6383;50.830;7.210;2023-04-29T07:13:43;27.65;;;23.60;;
12635;SDS011;6383;50.830;7.210;2023-04-29T07:16:16;25.27;;;21.50;;
12635;SDS011;6383;50.830;7.210;2023-04-29T07:18:47;27.55;;;22.15;;
12635;SDS011;6383;50.830;7.210;2023-04-29T07:21:16;26.67;;;21.73;;
12635;SDS011;6383;50.830;7.210;2023-04-29T07:23:46;24.80;;;22.17;;
12635;SDS011;6383;50.830;7.210;2023-04-29T07:26:16;24.77;;;21.67;;
12635;SDS011;6383;50.830;7.210;2023-04-29T07:28:46;25.90;;;22.42;;
12635;SDS011;6383;50.830;7.210;2023-04-29T07:31:16;27.88;;;22.83;;
12635;SDS011;6383;50.830;7.210;2023-04-29T07:33:45;27.85;;;22.92;;
12635;SDS011;6383;50.830;7.210;2023-04-29T07:36:15;27.52;;;22.55;;
12635;SDS011;6383;50.830;7.210;2023-04-29T07:38:43;24.70;;;21.90;;
12635;SDS011;6383;50.830;7.210;2023-04-29T07:41:12;24.35;;;21.85;;
12635;SDS011;6383;50.830;7.210;2023-04-29T07:43:40;26.85;;;22.30;;
12635;SDS011;6383;50.830;7.210;2023-04-29T07:46:07;24.92;;;21.85;;
12635;SDS011;6383;50.830;7.210;2023-04-29T07:48:35;23.92;;;20.60;;
12635;SDS011;6383;50.830;7.210;2023-04-29T07:51:05;23.92;;;21.42;;
12635;SDS011;6383;50.830;7.210;2023-04-29T07:53:34;24.20;;;20.35;;
12635;SDS011;6383;50.830;7.210;2023-04-29T07:56:03;23.48;;;21.02;;
12635;SDS011;6383;50.830;7.210;2023-04-29T07:58:34;24.40;;;21.80;;
12635;SDS011;6383;50.830;7.210;2023-04-29T08:01:05;27.17;;;23.53;;
12635;SDS011;6383;50.830;7.210;2023-04-29T08:03:35;26.87;;;24.20;;
12635;SDS011;6383;50.830;7.210;2023-04-29T08:06:05;26.88;;;24.27;;
12635;SDS011;6383;50.830;7.210;2023-04-29T08:08:32;27.55;;;24.65;;
12635;SDS011;6383;50.830;7.210;2023-04-29T08:11:01;28.52;;;25.52;;
12635;SDS011;6383;50.830;7.210;2023-04-29T08:13:29;27.42;;;24.73;;
12635;SDS011;6383;50.830;7.210;2023-04-29T08:16:00;27.88;;;25.10;;
12635;SDS011;6383;50.830;7.210;2023-04-29T08:18:29;29.37;;;26.57;;
12635;SDS011;6383;50.830;7.210;2023-04-29T08:20:58;29.17;;;26.23;;
12635;SDS011;6383;50.830;7.210;2023-04-29T08:23:27;29.60;;;26.55;;
12635;SDS011;6383;50.830;7.210;2023-04-29T08:25:56;29.17;;;26.35;;
12635;SDS011;6383;50.830;7.210;2023-04-29T08:28:25;31.48;;;28.27;;
12635;SDS011;6383;50.830;7.210;2023-04-29T08:30:54;32.28;;;28.85;;
12635;SDS011;6383;50.830;7.210;2023-04-29T08:33:25;33.08;;;29.77;;
12635;SDS011;6383;50.830;7.210;2023-04-29T08:35:56;31.55;;;28.55;;
12635;SDS011;6383;50.830;7.210;2023-04-29T08:38:24;32.00;;;28.88;;
12635;SDS011;6383;50.830;7.210;2023-04-29T08:40:54;34.25;;;30.90;;
12635;SDS011;6383;50.830;7.210;2023-04-29T08:43:23;33.60;;;30.30;;
12635;SDS011;6383;50.830;7.210;2023-04-29T08:45:56;34.67;;;30.97;;
12635;SDS011;6383;50.830;7.210;2023-04-29T08:48:27;35.00;;;31.30;;
12635;SDS011;6383;50.830;7.210;2023-04-29T08:50:57;34.67;;;31.27;;
12635;SDS011;6383;50.830;7.210;2023-04-29T08:53:28;33.73;;;30.27;;
12635;SDS011;6383;50.830;7.210;2023-04-29T08:55:57;33.97;;;30.30;;
12635;SDS011;6383;50.830;7.210;2023-04-29T08:58:31;33.65;;;30.15;;
12635;SDS011;6383;50.830;7.210;2023-04-29T09:01:05;33.40;;;30.05;;
12635;SDS011;6383;50.830;7.210;2023-04-29T09:03:39;33.38;;;30.20;;
12635;SDS011;6383;50.830;7.210;2023-04-29T09:06:13;32.87;;;29.60;;
12635;SDS011;6383;50.830;7.210;2023-04-29T09:08:43;33.65;;;30.27;;
12635;SDS011;6383;50.830;7.210;2023-04-29T09:11:12;32.58;;;29.17;;
12635;SDS011;6383;50.830;7.210;2023-04-29T09:13:43;31.87;;;28.77;;
12635;SDS011;6383;50.830;7.210;2023-04-29T09:16:12;31.98;;;28.67;;
12635;SDS011;6383;50.830;7.210;2023-04-29T09:18:41;34.03;;;30.67;;
12635;SDS011;6383;50.830;7.210;2023-04-29T09:21:16;34.00;;;30.63;;
12635;SDS011;6383;50.830;7.210;2023-04-29T09:23:45;34.40;;;30.95;;
12635;SDS011;6383;50.830;7.210;2023-04-29T09:26:15;33.60;;;30.20;;
12635;SDS011;6383;50.830;7.210;2023-04-29T09:28:44;33.77;;;30.17;;
12635;SDS011;6383;50.830;7.210;2023-04-29T09:31:14;33.22;;;29.83;;
12635;SDS011;6383;50.830;7.210;2023-04-29T09:33:49;30.45;;;27.35;;
12635;SDS011;6383;50.830;7.210;2023-04-29T09:36:42;29.10;;;26.00;;
12635;SDS011;6383;50.830;7.210;2023-04-29T09:39:12;28.80;;;25.90;;
12635;SDS011;6383;50.830;7.210;2023-04-29T09:41:56;27.67;;;24.88;;
12635;SDS011;6383;50.830;7.210;2023-04-29T09:44:26;25.48;;;23.08;;
12635;SDS011;6383;50.830;7.210;2023-04-29T09:46:56;25.05;;;22.35;;
12635;SDS011;6383;50.830;7.210;2023-04-29T09:49:30;25.02;;;22.38;;
12635;SDS011;6383;50.830;7.210;2023-04-29T09:52:01;24.52;;;22.08;;
12635;SDS011;6383;50.830;7.210;2023-04-29T09:54:30;25.33;;;22.75;;
12635;SDS011;6383;50.830;7.210;2023-04-29T09:57:00;24.95;;;22.35;;
12635;SDS011;6383;50.830;7.210;2023-04-29T09:59:32;24.13;;;21.58;;
12635;SDS011;6383;50.830;7.210;2023-04-29T10:02:05;24.98;;;22.45;;
12635;SDS011;6383;50.830;7.210;2023-04-29T10:04:37;26.55;;;23.70;;
12635;SDS011;6383;50.830;7.210;2023-04-29T10:07:08;27.02;;;24.33;;
12635;SDS011;6383;50.830;7.210;2023-04-29T10:09:41;27.63;;;24.77;;
12635;SDS011;6383;50.830;7.210;2023-04-29T10:12:10;26.60;;;23.85;;
12635;SDS011;6383;50.830;7.210;2023-04-29T10:14:44;25.90;;;23.20;;
12635;SDS011;6383;50.830;7.210;2023-04-29T10:17:20;27.90;;;25.07;;
12635;SDS011;6383;50.830;7.210;2023-04-29T10:19:55;28.45;;;25.63;;
12635;SDS011;6383;50.830;7.210;2023-04-29T10:22:28;29.67;;;26.70;;
12635;SDS011;6383;50.830;7.210;2023-04-29T10:25:01;27.85;;;25.10;;
12635;SDS011;6383;50.830;7.210;2023-04-29T10:27:32;27.13;;;24.38;;
12635;SDS011;6383;50.830;7.210;2023-04-29T10:30:03;28.73;;;25.63;;
12635;SDS011;6383;50.830;7.210;2023-04-29T10:32:36;29.38;;;26.55;;
12635;SDS011;6383;50.830;7.210;2023-04-29T10:35:10;37.42;;;33.38;;
12635;SDS011;6383;50.830;7.210;2023-04-29T10:37:41;30.42;;;26.80;;
12635;SDS011;6383;50.830;7.210;2023-04-29T10:40:14;29.23;;;26.23;;
12635;SDS011;6383;50.830;7.210;2023-04-29T10:42:44;30.45;;;27.27;;
12635;SDS011;6383;50.830;7.210;2023-04-29T10:45:16;30.55;;;27.40;;
12635;SDS011;6383;50.830;7.210;2023-04-29T10:51:00;31.00;;;27.83;;
12635;SDS011;6383;50.830;7.210;2023-04-29T10:53:30;29.88;;;26.83;;
12635;SDS011;6383;50.830;7.210;2023-04-29T10:56:03;29.95;;;27.02;;
12635;SDS011;6383;50.830;7.210;2023-04-29T10:58:37;30.17;;;27.02;;
12635;SDS011;6383;50.830;7.210;2023-04-29T11:01:13;30.92;;;27.65;;
12635;SDS011;6383;50.830;7.210;2023-04-29T11:03:44;31.80;;;28.63;;
12635;SDS011;6383;50.830;7.210;2023-04-29T11:06:23;31.45;;;28.45;;
12635;SDS011;6383;50.830;7.210;2023-04-29T11:08:58;34.38;;;30.98;;
12635;SDS011;6383;50.830;7.210;2023-04-29T11:11:45;33.63;;;30.27;;
12635;SDS011;6383;50.830;7.210;2023-04-29T11:14:20;35.10;;;31.40;;
12635;SDS011;6383;50.830;7.210;2023-04-29T11:16:51;36.17;;;32.47;;
12635;SDS011;6383;50.830;7.210;2023-04-29T11:19:24;37.75;;;33.90;;
12635;SDS011;6383;50.830;7.210;2023-04-29T11:22:10;38.53;;;34.60;;
12635;SDS011;6383;50.830;7.210;2023-04-29T11:24:52;39.38;;;35.38;;
12635;SDS011;6383;50.830;7.210;2023-04-29T11:27:24;42.17;;;37.75;;
12635;SDS011;6383;50.830;7.210;2023-04-29T11:29:54;41.70;;;37.60;;
12635;SDS011;6383;50.830;7.210;2023-04-29T11:32:24;44.78;;;40.17;;
12635;SDS011;6383;50.830;7.210;2023-04-29T11:34:54;43.70;;;39.20;;
12635;SDS011;6383;50.830;7.210;2023-04-29T11:37:24;46.70;;;42.00;;
12635;SDS011;6383;50.830;7.210;2023-04-29T11:39:57;48.33;;;43.45;;
12635;SDS011;6383;50.830;7.210;2023-04-29T11:42:26;47.13;;;42.20;;
12635;SDS011;6383;50.830;7.210;2023-04-29T11:44:53;49.60;;;44.38;;
12635;SDS011;6383;50.830;7.210;2023-04-29T11:47:26;48.17;;;43.42;;
12635;SDS011;6383;50.830;7.210;2023-04-29T11:50:01;49.73;;;44.63;;
12635;SDS011;6383;50.830;7.210;2023-04-29T11:52:34;50.03;;;44.92;;
12635;SDS011;6383;50.830;7.210;2023-04-29T11:55:04;51.42;;;46.15;;
12635;SDS011;6383;50.830;7.210;2023-04-29T11:57:33;49.42;;;44.13;;
12635;SDS011;6383;50.830;7.210;2023-04-29T12:00:02;48.25;;;43.25;;
12635;SDS011;6383;50.830;7.210;2023-04-29T12:02:32;51.43;;;45.93;;
12635;SDS011;6383;50.830;7.210;2023-04-29T12:05:04;50.88;;;44.97;;
12635;SDS011;6383;50.830;7.210;2023-04-29T12:07:33;52.05;;;45.65;;
12635;SDS011;6383;50.830;7.210;2023-04-29T12:10:02;48.60;;;43.25;;
12635;SDS011;6383;50.830;7.210;2023-04-29T12:12:29;51.92;;;45.70;;
12635;SDS011;6383;50.830;7.210;2023-04-29T12:15:02;57.55;;;46.95;;
12635;SDS011;6383;50.830;7.210;2023-04-29T12:17:32;56.03;;;48.45;;
12635;SDS011;6383;50.830;7.210;2023-04-29T12:20:01;59.10;;;49.27;;
12635;SDS011;6383;50.830;7.210;2023-04-29T12:22:30;56.75;;;48.60;;
12635;SDS011;6383;50.830;7.210;2023-04-29T12:25:03;56.92;;;48.22;;
12635;SDS011;6383;50.830;7.210;2023-04-29T12:27:32;57.53;;;46.37;;
12635;SDS011;6383;50.830;7.210;2023-04-29T12:30:01;48.13;;;42.50;;
12635;SDS011;6383;50.830;7.210;2023-04-29T12:32:34;46.75;;;39.90;;
12635;SDS011;6383;50.830;7.210;2023-04-29T12:35:02;45.58;;;37.17;;
12635;SDS011;6383;50.830;7.210;2023-04-29T12:37:31;42.92;;;35.75;;
12635;SDS011;6383;50.830;7.210;2023-04-29T12:40:02;46.90;;;37.25;;
12635;SDS011;6383;50.830;7.210;2023-04-29T12:42:32;44.72;;;36.05;;
12635;SDS011;6383;50.830;7.210;2023-04-29T12:45:01;41.42;;;34.17;;
12635;SDS011;6383;50.830;7.210;2023-04-29T12:47:30;42.90;;;34.57;;
12635;SDS011;6383;50.830;7.210;2023-04-29T12:50:01;42.70;;;32.75;;
12635;SDS011;6383;50.830;7.210;2023-04-29T12:52:29;53.45;;;43.28;;
12635;SDS011;6383;50.830;7.210;2023-04-29T12:54:57;41.42;;;36.25;;
12635;SDS011;6383;50.830;7.210;2023-04-29T12:57:28;40.28;;;33.58;;
12635;SDS011;6383;50.830;7.210;2023-04-29T12:59:57;42.58;;;33.03;;
12635;SDS011;6383;50.830;7.210;2023-04-29T13:02:24;36.30;;;30.73;;
12635;SDS011;6383;50.830;7.210;2023-04-29T13:04:54;37.55;;;30.65;;
12635;SDS011;6383;50.830;7.210;2023-04-29T13:07:23;36.53;;;29.95;;
12635;SDS011;6383;50.830;7.210;2023-04-29T13:09:50;31.80;;;28.20;;
12635;SDS011;6383;50.830;7.210;2023-04-29T13:12:18;35.08;;;29.35;;
12635;SDS011;6383;50.830;7.210;2023-04-29T13:14:47;37.70;;;29.25;;
12635;SDS011;6383;50.830;7.210;2023-04-29T13:17:17;34.92;;;28.50;;
12635;SDS011;6383;50.830;7.210;2023-04-29T13:19:45;36.15;;;28.65;;
12635;SDS011;6383;50.830;7.210;2023-04-29T13:22:14;35.80;;;30.27;;
12635;SDS011;6383;50.830;7.210;2023-04-29T13:24:41;37.08;;;30.48;;
12635;SDS011;6383;50.830;7.210;2023-04-29T13:27:10;32.92;;;28.50;;
12635;SDS011;6383;50.830;7.210;2023-04-29T13:29:39;36.93;;;30.27;;
12635;SDS011;6383;50.830;7.210;2023-04-29T13:32:10;38.25;;;30.88;;
12635;SDS011;6383;50.830;7.210;2023-04-29T13:34:38;37.05;;;29.00;;
12635;SDS011;6383;50.830;7.210;2023-04-29T13:37:08;33.83;;;28.98;;
12635;SDS011;6383;50.830;7.210;2023-04-29T13:39:37;37.33;;;29.25;;
12635;SDS011;6383;50.830;7.210;2023-04-29T13:42:05;36.08;;;28.23;;
12635;SDS011;6383;50.830;7.210;2023-04-29T13:44:32;34.43;;;29.00;;
12635;SDS011;6383;50.830;7.210;2023-04-29T13:47:02;30.50;;;26.73;;
12635;SDS011;6383;50.830;7.210;2023-04-29T13:49:33;29.42;;;26.02;;
12635;SDS011;6383;50.830;7.210;2023-04-29T13:52:01;30.33;;;25.35;;
12635;SDS011;6383;50.830;7.210;2023-04-29T13:54:30;28.25;;;25.17;;
12635;SDS011;6383;50.830;7.210;2023-04-29T13:57:00;30.23;;;25.73;;
12635;SDS011;6383;50.830;7.210;2023-04-29T13:59:29;31.70;;;25.80;;
12635;SDS011;6383;50.830;7.210;2023-04-29T14:01:57;29.30;;;25.40;;
12635;SDS011;6383;50.830;7.210;2023-04-29T14:04:27;33.03;;;27.45;;
12635;SDS011;6383;50.830;7.210;2023-04-29T14:06:58;33.05;;;27.95;;
12635;SDS011;6383;50.830;7.210;2023-04-29T14:09:27;30.60;;;27.23;;
12635;SDS011;6383;50.830;7.210;2023-04-29T14:11:57;29.23;;;26.02;;
12635;SDS011;6383;50.830;7.210;2023-04-29T14:14:25;31.85;;;27.02;;
12635;SDS011;6383;50.830;7.210;2023-04-29T14:16:54;30.70;;;25.95;;
12635;SDS011;6383;50.830;7.210;2023-04-29T14:19:21;31.40;;;27.27;;
12635;SDS011;6383;50.830;7.210;2023-04-29T14:21:50;34.25;;;27.45;;
12635;SDS011;6383;50.830;7.210;2023-04-29T14:24:20;30.93;;;26.43;;
12635;SDS011;6383;50.830;7.210;2023-04-29T14:26:47;29.13;;;25.95;;
12635;SDS011;6383;50.830;7.210;2023-04-29T14:29:16;31.85;;;27.05;;
12635;SDS011;6383;50.830;7.210;2023-04-29T14:31:45;32.80;;;26.98;;
12635;SDS011;6383;50.830;7.210;2023-04-29T14:34:14;29.02;;;25.52;;
12635;SDS011;6383;50.830;7.210;2023-04-29T14:36:43;27.75;;;24.58;;
12635;SDS011;6383;50.830;7.210;2023-04-29T14:39:11;29.60;;;25.53;;
12635;SDS011;6383;50.830;7.210;2023-04-29T14:41:41;28.02;;;24.85;;
12635;SDS011;6383;50.830;7.210;2023-04-29T14:44:10;30.33;;;25.88;;
12635;SDS011;6383;50.830;7.210;2023-04-29T14:46:39;31.95;;;26.27;;
12635;SDS011;6383;50.830;7.210;2023-04-29T14:49:08;28.40;;;24.60;;
12635;SDS011;6383;50.830;7.210;2023-04-29T14:51:37;29.27;;;25.58;;
12635;SDS011;6383;50.830;7.210;2023-04-29T14:54:05;33.80;;;26.73;;